createdAt,value
2018-04-02T00:01:19.809Z,33.53
2018-04-02T00:03:46.232Z,33.43
2018-04-02T00:06:12.674Z,33.48
2018-04-02T00:08:39.026Z,33.53
2018-04-02T00:11:05.474Z,33.52
2018-04-02T00:13:31.846Z,33.67
2018-04-02T00:15:58.274Z,33.64
2018-04-02T00:18:24.747Z,33.65
2018-04-02T00:20:51.171Z,33.65
2018-04-02T00:23:17.591Z,33.65
2018-04-02T00:25:43.992Z,33.65
2018-04-02T00:28:11.152Z,33.62
2018-04-02T00:30:37.687Z,33.70
2018-04-02T00:33:04.101Z,33.65
2018-04-02T00:35:30.522Z,33.77
2018-04-02T00:37:56.901Z,33.73
2018-04-02T00:40:23.294Z,33.68
2018-04-02T00:42:49.750Z,33.74
2018-04-02T00:45:16.214Z,33.75
2018-04-02T00:47:42.717Z,33.77
2018-04-02T00:50:09.269Z,33.74
2018-04-02T00:52:35.799Z,33.72
2018-04-02T00:55:02.390Z,33.89
2018-04-02T00:57:28.825Z,33.72
2018-04-02T00:59:56.053Z,33.81
2018-04-02T01:02:22.540Z,33.83
2018-04-02T01:04:48.996Z,33.80
2018-04-02T01:07:15.401Z,33.83
2018-04-02T01:09:41.985Z,33.86
2018-04-02T01:12:08.396Z,33.84
2018-04-02T01:14:34.874Z,33.96
2018-04-02T01:17:03.063Z,33.93
2018-04-02T01:19:29.494Z,33.93
2018-04-02T01:21:55.953Z,33.97
2018-04-02T01:24:22.355Z,34.00
2018-04-02T01:26:48.827Z,33.91
2018-04-02T01:29:15.197Z,33.95
2018-04-02T01:31:41.707Z,34.01
2018-04-02T01:34:08.056Z,34.03
2018-04-02T01:36:34.382Z,34.13
2018-04-02T01:39:00.780Z,34.10
2018-04-02T01:41:27.099Z,34.09
2018-04-02T01:43:53.499Z,34.17
2018-04-02T01:46:19.822Z,34.17
2018-04-02T01:48:46.224Z,34.16
2018-04-02T01:51:12.669Z,34.25
2018-04-02T01:53:39.214Z,34.28
2018-04-02T01:56:05.669Z,34.27
2018-04-02T01:58:32.059Z,34.39
2018-04-02T02:03:37.254Z,34.45
2018-04-02T02:06:03.590Z,34.42
2018-04-02T02:08:29.926Z,34.42
2018-04-02T02:10:56.374Z,34.47
2018-04-02T02:13:22.977Z,34.43
2018-04-02T02:15:49.305Z,34.36
2018-04-02T02:18:15.656Z,34.41
2018-04-02T02:20:42.154Z,34.48
2018-04-02T02:23:08.538Z,34.38
2018-04-02T02:25:34.850Z,34.43
2018-04-02T02:28:01.444Z,34.55
2018-04-02T02:30:27.913Z,34.47
2018-04-02T02:32:54.332Z,34.40
2018-04-02T02:35:20.772Z,34.49
2018-04-02T02:37:47.294Z,34.57
2018-04-02T02:40:13.711Z,34.64
2018-04-02T02:42:40.093Z,34.68
2018-04-02T02:45:06.542Z,34.82
2018-04-02T02:47:32.915Z,34.94
2018-04-02T02:49:59.246Z,34.93
2018-04-02T02:52:25.682Z,34.93
2018-04-02T02:54:52.011Z,35.00
2018-04-02T02:57:18.584Z,35.31
2018-04-02T02:59:45.021Z,35.42
2018-04-02T03:02:11.465Z,35.46
2018-04-02T03:04:38.153Z,35.41
2018-04-02T03:07:04.511Z,35.50
2018-04-02T03:09:30.916Z,35.43
2018-04-02T03:11:57.326Z,35.36
2018-04-02T03:14:23.683Z,35.25
2018-04-02T03:16:50.115Z,35.14
2018-04-02T03:19:16.704Z,34.94
2018-04-02T03:21:43.092Z,34.97
2018-04-02T03:24:09.546Z,34.85
2018-04-02T03:26:35.988Z,34.61
2018-04-02T03:29:02.494Z,34.57
2018-04-02T03:31:29.064Z,34.65
2018-04-02T03:33:55.646Z,34.97
2018-04-02T03:36:22.092Z,34.85
2018-04-02T03:38:48.835Z,34.60
2018-04-02T03:41:15.230Z,34.46
2018-04-02T03:43:41.590Z,34.66
2018-04-02T03:46:08.288Z,34.37
2018-04-02T03:48:34.661Z,34.65
2018-04-02T03:51:00.974Z,34.28
2018-04-02T03:53:27.333Z,34.43
2018-04-02T03:55:53.702Z,34.03
2018-04-02T03:58:20.023Z,34.17
2018-04-02T04:00:46.358Z,34.39
2018-04-02T04:03:12.730Z,35.05
2018-04-02T04:05:39.138Z,35.02
2018-04-02T04:08:05.458Z,34.32
2018-04-02T04:10:31.786Z,34.74
2018-04-02T04:12:58.145Z,34.13
2018-04-02T04:15:24.629Z,34.50
2018-04-02T04:17:51.034Z,35.00
2018-04-02T04:20:17.457Z,34.68
2018-04-02T04:22:43.788Z,34.56
2018-04-02T04:25:10.152Z,34.05
2018-04-02T04:27:36.601Z,34.01
2018-04-02T04:30:02.967Z,34.16
2018-04-02T04:32:29.741Z,33.67
2018-04-02T04:34:56.593Z,33.93
2018-04-02T04:37:22.964Z,33.94
2018-04-02T04:39:49.331Z,34.33
2018-04-02T04:42:15.660Z,33.67
2018-04-02T04:44:41.991Z,33.73
2018-04-02T04:47:08.406Z,34.11
2018-04-02T04:49:34.734Z,34.08
2018-04-02T04:52:03.123Z,35.30
2018-04-02T04:54:29.461Z,35.37
2018-04-02T04:56:55.843Z,35.05
2018-04-02T04:59:22.248Z,35.45
2018-04-02T05:01:48.605Z,35.42
2018-04-02T05:04:15.668Z,35.30
2018-04-02T05:06:42.070Z,35.42
2018-04-02T05:09:09.249Z,35.49
2018-04-02T05:11:35.628Z,35.12
2018-04-02T05:14:02.075Z,35.21
2018-04-02T05:16:29.260Z,34.98
2018-04-02T05:18:55.717Z,35.02
2018-04-02T05:21:26.847Z,34.88
2018-04-02T05:23:53.660Z,34.40
2018-04-02T05:26:20.227Z,34.06
2018-04-02T05:28:47.080Z,34.14
2018-04-02T05:31:13.711Z,33.83
2018-04-02T05:33:40.816Z,33.64
2018-04-02T05:36:09.701Z,33.88
2018-04-02T05:38:36.672Z,33.75
2018-04-02T05:41:03.094Z,33.67
2018-04-02T05:43:29.493Z,33.87
2018-04-02T05:45:57.012Z,33.97
2018-04-02T05:48:23.651Z,33.61
2018-04-02T05:50:50.583Z,33.78
2018-04-02T05:53:16.977Z,33.87
2018-04-02T05:55:43.456Z,33.51
2018-04-02T05:58:09.865Z,33.88
2018-04-02T06:00:36.214Z,33.72
2018-04-02T06:03:02.953Z,33.90
2018-04-02T06:05:29.466Z,34.06
2018-04-02T06:07:55.981Z,34.38
2018-04-02T06:10:24.979Z,33.94
2018-04-02T06:12:51.394Z,33.81
2018-04-02T06:15:18.070Z,33.68
2018-04-02T06:17:44.571Z,34.01
2018-04-02T06:20:11.252Z,34.03
2018-04-02T06:22:37.848Z,34.15
2018-04-02T06:25:04.441Z,34.17
2018-04-02T06:27:30.939Z,34.29
2018-04-02T06:29:57.723Z,34.15
2018-04-02T06:32:24.538Z,34.19
2018-04-02T06:34:50.998Z,34.63
2018-04-02T06:37:17.410Z,34.53
2018-04-02T06:39:44.147Z,34.31
2018-04-02T06:42:10.910Z,34.13
2018-04-02T06:44:37.904Z,34.38
2018-04-02T06:47:04.474Z,34.27
2018-04-02T06:49:30.877Z,34.22
2018-04-02T06:51:57.233Z,34.08
2018-04-02T06:54:23.643Z,34.37
2018-04-02T06:56:49.997Z,34.75
2018-04-02T06:59:16.368Z,34.18
2018-04-02T07:01:43.275Z,34.37
2018-04-02T07:04:16.086Z,34.13
2018-04-02T07:06:43.053Z,34.18
2018-04-02T07:09:09.627Z,34.61
2018-04-02T07:11:36.281Z,34.34
2018-04-02T07:14:02.727Z,34.55
2018-04-02T07:16:29.202Z,34.61
2018-04-02T07:18:55.953Z,34.41
2018-04-02T07:21:22.662Z,34.42
2018-04-02T07:23:49.619Z,34.32
2018-04-02T07:26:16.105Z,34.24
2018-04-02T07:28:42.637Z,34.24
2018-04-02T07:31:09.122Z,34.22
2018-04-02T07:33:35.649Z,34.33
2018-04-02T07:36:02.275Z,34.22
2018-04-02T07:38:29.185Z,34.28
2018-04-02T07:40:55.793Z,34.42
2018-04-02T07:43:22.480Z,34.39
2018-04-02T07:45:48.875Z,34.30
2018-04-02T07:48:15.348Z,34.25
2018-04-02T07:50:41.812Z,34.13
2018-04-02T07:53:08.642Z,34.15
2018-04-02T07:55:35.404Z,34.31
2018-04-02T07:58:01.925Z,34.09
2018-04-02T08:00:28.597Z,33.87
2018-04-02T08:02:55.305Z,33.80
2018-04-02T08:05:22.111Z,33.70
2018-04-02T08:07:48.978Z,34.17
2018-04-02T08:10:15.895Z,34.10
2018-04-02T08:12:42.428Z,34.24
2018-04-02T08:15:09.107Z,33.74
2018-04-02T08:17:35.549Z,33.68
2018-04-02T08:20:02.043Z,33.53
2018-04-02T08:22:28.445Z,33.62
2018-04-02T08:24:56.249Z,33.60
2018-04-02T08:27:23.651Z,33.45
2018-04-02T08:29:50.305Z,33.48
2018-04-02T08:32:17.549Z,33.85
2018-04-02T08:34:44.899Z,33.98
2018-04-02T08:37:12.254Z,33.78
2018-04-02T08:39:38.817Z,33.73
2018-04-02T08:42:05.424Z,33.41
2018-04-02T08:44:32.015Z,33.57
2018-04-02T08:46:59.383Z,33.23
2018-04-02T08:49:25.765Z,33.29
2018-04-02T08:51:52.385Z,33.37
2018-04-02T08:54:18.946Z,33.35
2018-04-02T08:56:45.869Z,33.07
2018-04-02T08:59:14.517Z,33.10
2018-04-02T09:01:41.439Z,32.99
2018-04-02T09:04:08.035Z,32.87
2018-04-02T09:06:35.887Z,32.80
2018-04-02T09:09:02.447Z,32.86
2018-04-02T09:11:33.563Z,32.96
2018-04-02T09:14:00.215Z,32.86
2018-04-02T09:16:26.780Z,32.50
2018-04-02T09:18:53.293Z,32.73
2018-04-02T09:21:19.716Z,32.68
2018-04-02T09:23:46.726Z,32.58
2018-04-02T09:26:13.291Z,32.88
2018-04-02T09:28:39.833Z,32.78
2018-04-02T09:31:06.509Z,32.87
2018-04-02T09:33:32.901Z,32.76
2018-04-02T09:36:01.231Z,32.91
2018-04-02T09:38:30.606Z,32.83
2018-04-02T09:40:57.078Z,32.95
2018-04-02T09:45:57.114Z,33.13
2018-04-02T09:48:23.681Z,32.98
2018-04-02T09:50:50.098Z,33.22
2018-04-02T09:53:16.506Z,33.17
2018-04-02T09:55:42.967Z,33.37
2018-04-02T09:58:09.359Z,33.28
2018-04-02T10:00:35.747Z,33.49
2018-04-02T10:03:02.139Z,33.38
2018-04-02T10:05:28.577Z,33.18
2018-04-02T10:07:55.036Z,33.34
2018-04-02T10:10:21.578Z,33.46
2018-04-02T10:12:47.884Z,33.33
2018-04-02T10:15:14.270Z,33.45
2018-04-02T10:17:40.655Z,33.65
2018-04-02T10:20:07.155Z,33.48
2018-04-02T10:22:33.548Z,33.44
2018-04-02T10:24:59.922Z,33.45
2018-04-02T10:27:26.322Z,33.32
2018-04-02T10:29:52.791Z,33.67
2018-04-02T10:32:19.223Z,33.46
2018-04-02T10:34:45.655Z,33.40
2018-04-02T10:37:12.212Z,33.41
2018-04-02T10:39:38.565Z,33.52
2018-04-02T10:42:05.005Z,33.49
2018-04-02T10:44:32.493Z,33.66
2018-04-02T10:46:58.898Z,33.79
2018-04-02T10:49:25.365Z,33.64
2018-04-02T10:51:51.753Z,33.83
2018-04-02T10:54:18.172Z,33.84
2018-04-02T10:56:44.623Z,33.65
2018-04-02T10:59:11.190Z,33.79
2018-04-02T11:01:37.631Z,33.81
2018-04-02T11:04:04.110Z,33.67
2018-04-02T11:06:31.314Z,33.59
2018-04-02T11:08:57.666Z,33.68
2018-04-02T11:11:24.136Z,33.67
2018-04-02T11:13:50.813Z,33.81
2018-04-02T11:16:17.202Z,33.69
2018-04-02T11:18:43.763Z,33.62
2018-04-02T11:21:10.238Z,33.37
2018-04-02T11:23:36.690Z,33.54
2018-04-02T11:26:03.178Z,33.48
2018-04-02T11:28:29.689Z,33.44
2018-04-02T11:30:56.101Z,33.33
2018-04-02T11:33:22.496Z,33.23
2018-04-02T11:35:49.227Z,33.36
2018-04-02T11:38:16.327Z,33.28
2018-04-02T11:40:42.869Z,32.92
2018-04-02T11:43:09.281Z,33.09
2018-04-02T11:45:35.684Z,32.95
2018-04-02T11:48:02.086Z,32.63
2018-04-02T11:53:06.751Z,32.57
2018-04-02T11:55:33.298Z,32.59
2018-04-02T11:57:59.816Z,32.44
2018-04-02T12:00:26.280Z,32.48
2018-04-02T12:02:52.840Z,32.57
2018-04-02T12:05:19.426Z,32.80
2018-04-02T12:07:46.075Z,32.68
2018-04-02T12:10:13.386Z,32.70
2018-04-02T12:12:39.905Z,32.65
2018-04-02T12:15:08.873Z,32.51
2018-04-02T12:17:36.087Z,32.39
2018-04-02T12:20:03.045Z,32.20
2018-04-02T12:22:29.551Z,32.42
2018-04-02T12:24:56.003Z,32.28
2018-04-02T12:27:22.796Z,31.95
2018-04-02T12:29:49.473Z,32.11
2018-04-02T12:32:15.981Z,31.16
2018-04-02T12:34:42.815Z,31.45
2018-04-02T12:37:09.482Z,31.59
2018-04-02T12:39:36.077Z,31.31
2018-04-02T12:42:03.031Z,31.00
2018-04-02T12:44:29.728Z,31.17
2018-04-02T12:46:56.215Z,31.22
2018-04-02T12:49:23.346Z,31.42
2018-04-02T12:51:50.061Z,31.09
2018-04-02T12:54:16.453Z,30.87
2018-04-02T12:59:15.129Z,30.56
2018-04-02T13:01:41.530Z,31.04
2018-04-02T13:04:08.196Z,30.79
2018-04-02T13:06:34.687Z,30.80
2018-04-02T13:09:01.136Z,30.74
2018-04-02T13:11:27.630Z,30.72
2018-04-02T13:13:54.030Z,30.77
2018-04-02T13:16:20.467Z,30.51
2018-04-02T13:18:46.875Z,30.50
2018-04-02T13:21:13.339Z,30.58
2018-04-02T13:23:39.861Z,30.49
2018-04-02T13:26:06.998Z,30.44
2018-04-02T13:28:33.378Z,30.39
2018-04-02T13:30:59.909Z,30.55
2018-04-02T13:33:26.593Z,30.43
2018-04-02T13:35:52.946Z,30.58
2018-04-02T13:38:19.431Z,30.53
2018-04-02T13:40:46.030Z,30.54
2018-04-02T13:43:12.513Z,30.77
2018-04-02T13:45:38.922Z,30.21
2018-04-02T13:48:05.497Z,30.35
2018-04-02T13:50:32.116Z,30.44
2018-04-02T13:52:58.540Z,30.55
2018-04-02T13:55:25.048Z,30.50
2018-04-02T13:57:51.475Z,30.53
2018-04-02T14:00:17.817Z,30.40
2018-04-02T14:02:44.712Z,30.33
2018-04-02T14:05:11.151Z,30.29
2018-04-02T14:07:37.536Z,29.90
2018-04-02T14:10:04.959Z,30.10
2018-04-02T14:12:31.426Z,30.02
2018-04-02T14:14:57.792Z,29.96
2018-04-02T14:17:24.195Z,30.10
2018-04-02T14:19:50.565Z,30.34
2018-04-02T14:22:17.394Z,30.16
2018-04-02T14:24:43.795Z,29.93
2018-04-02T14:27:10.240Z,30.25
2018-04-02T14:29:36.749Z,30.08
2018-04-02T14:32:03.099Z,30.01
2018-04-02T14:34:29.443Z,30.08
2018-04-02T14:36:55.805Z,29.99
2018-04-02T14:39:22.267Z,30.29
2018-04-02T14:41:48.744Z,30.12
2018-04-02T14:44:15.145Z,30.08
2018-04-02T14:46:41.558Z,30.11
2018-04-02T14:49:08.257Z,30.15
2018-04-02T14:51:34.720Z,30.22
2018-04-02T14:54:01.119Z,30.11
2018-04-02T14:56:27.517Z,30.19
2018-04-02T14:58:53.854Z,30.13
2018-04-02T15:01:20.186Z,30.25
2018-04-02T15:03:46.564Z,30.11
2018-04-02T15:06:12.992Z,29.93
2018-04-02T15:08:39.666Z,29.88
2018-04-02T15:11:06.057Z,29.93
2018-04-02T15:13:32.411Z,29.73
2018-04-02T15:15:58.773Z,29.82
2018-04-02T15:18:25.115Z,29.81
2018-04-02T15:20:51.451Z,29.82
2018-04-02T15:23:17.884Z,29.72
2018-04-02T15:25:44.274Z,29.62
2018-04-02T15:28:10.604Z,29.57
2018-04-02T15:30:36.957Z,29.74
2018-04-02T15:33:03.285Z,29.67
2018-04-02T15:35:29.705Z,29.53
2018-04-02T15:37:56.127Z,29.51
2018-04-02T15:40:22.515Z,29.31
2018-04-02T15:42:49.005Z,29.41
2018-04-02T15:45:15.531Z,29.38
2018-04-02T15:47:41.893Z,29.35
2018-04-02T15:50:08.292Z,29.35
2018-04-02T15:52:34.698Z,29.37
2018-04-02T15:55:01.052Z,29.33
2018-04-02T15:57:27.404Z,29.36
2018-04-02T15:59:53.742Z,28.90
2018-04-02T16:02:20.075Z,29.19
2018-04-02T16:04:46.406Z,29.31
2018-04-02T16:07:12.779Z,29.24
2018-04-02T16:09:39.126Z,29.22
2018-04-02T16:12:05.526Z,29.15
2018-04-02T16:14:31.870Z,29.19
2018-04-02T16:16:58.227Z,29.23
2018-04-02T16:19:24.586Z,29.24
2018-04-02T16:21:50.982Z,29.23
2018-04-02T16:24:17.917Z,29.14
2018-04-02T16:26:43.789Z,29.17
2018-04-02T16:29:10.143Z,29.14
2018-04-02T16:31:36.474Z,29.20
2018-04-02T16:34:02.798Z,29.14
2018-04-02T16:36:29.179Z,29.06
2018-04-02T16:38:55.595Z,28.99
2018-04-02T16:41:21.998Z,29.01
2018-04-02T16:43:48.398Z,28.98
2018-04-02T16:46:14.737Z,28.98
2018-04-02T16:48:41.063Z,29.00
2018-04-02T16:51:07.390Z,29.04
2018-04-02T16:53:33.911Z,28.88
2018-04-02T16:56:00.291Z,28.88
2018-04-02T16:58:26.628Z,28.91
2018-04-02T17:00:52.945Z,28.82
2018-04-02T17:03:19.332Z,28.83
2018-04-02T17:05:45.650Z,28.83
2018-04-02T17:08:11.980Z,28.91
2018-04-02T17:10:38.311Z,28.78
2018-04-02T17:13:04.641Z,28.74
2018-04-02T17:15:31.048Z,28.63
2018-04-02T17:17:57.377Z,28.72
2018-04-02T17:20:23.750Z,28.69
2018-04-02T17:22:50.076Z,28.76
2018-04-02T17:25:16.394Z,28.67
2018-04-02T17:27:42.715Z,28.70
2018-04-02T17:30:09.042Z,28.72
2018-04-02T17:32:35.394Z,28.71
2018-04-02T17:35:01.831Z,28.77
2018-04-02T17:37:28.149Z,28.77
2018-04-02T17:39:54.482Z,28.64
2018-04-02T17:42:20.795Z,28.61
2018-04-02T17:44:47.125Z,28.57
2018-04-02T17:47:13.490Z,28.57
2018-04-02T17:49:39.818Z,28.65
2018-04-02T17:52:06.154Z,28.68
2018-04-02T17:54:32.488Z,28.70
2018-04-02T17:56:58.832Z,28.68
2018-04-02T17:59:25.161Z,28.58
2018-04-02T18:01:51.534Z,28.47
2018-04-02T18:04:17.860Z,28.41
2018-04-02T18:06:44.226Z,28.57
2018-04-02T18:09:10.653Z,28.40
2018-04-02T18:11:37.010Z,28.44
2018-04-02T18:14:03.333Z,28.53
2018-04-02T18:16:29.656Z,28.62
2018-04-02T18:18:56.048Z,28.52
2018-04-02T18:21:22.435Z,28.53
2018-04-02T18:23:48.807Z,28.54
2018-04-02T18:26:15.252Z,28.53
2018-04-02T18:28:41.583Z,28.47
2018-04-02T18:31:07.988Z,28.53
2018-04-02T18:33:34.317Z,28.59
2018-04-02T18:36:00.737Z,28.64
2018-04-02T18:38:27.041Z,28.54
2018-04-02T18:40:53.385Z,28.59
2018-04-02T18:43:19.721Z,28.47
2018-04-02T18:45:46.104Z,28.57
2018-04-02T18:48:12.559Z,28.61
2018-04-02T18:50:38.887Z,28.65
2018-04-02T18:53:05.201Z,28.70
2018-04-02T18:55:31.574Z,28.56
2018-04-02T18:57:57.923Z,28.64
2018-04-02T19:00:24.246Z,28.57
2018-04-02T19:02:50.600Z,28.58
2018-04-02T19:05:16.919Z,28.63
2018-04-02T19:07:43.256Z,28.70
2018-04-02T19:10:09.649Z,28.70
2018-04-02T19:12:36.124Z,28.64
2018-04-02T19:15:02.483Z,28.61
2018-04-02T19:17:28.849Z,28.62
2018-04-02T19:19:55.395Z,28.70
2018-04-02T19:22:21.714Z,28.50
2018-04-02T19:24:48.036Z,28.55
2018-04-02T19:27:14.392Z,28.64
2018-04-02T19:29:40.799Z,28.53
2018-04-02T19:32:07.313Z,28.56
2018-04-02T19:34:33.640Z,28.65
2018-04-02T19:37:00.004Z,28.70
2018-04-02T19:39:26.394Z,28.79
2018-04-02T19:41:52.723Z,28.91
2018-04-02T19:44:19.051Z,29.01
2018-04-02T19:46:45.515Z,28.95
2018-04-02T19:49:11.831Z,28.99
2018-04-02T19:51:38.161Z,28.89
2018-04-02T19:54:04.525Z,28.85
2018-04-02T19:56:30.843Z,28.90
2018-04-02T19:58:57.212Z,28.86
2018-04-02T20:01:23.574Z,28.68
2018-04-02T20:03:49.905Z,28.85
2018-04-02T20:06:16.340Z,28.82
2018-04-02T20:08:42.711Z,28.64
2018-04-02T20:11:09.103Z,28.65
2018-04-02T20:13:35.595Z,28.73
2018-04-02T20:16:01.929Z,28.72
2018-04-02T20:18:28.275Z,28.62
2018-04-02T20:20:54.659Z,28.68
2018-04-02T20:23:20.988Z,28.70
2018-04-02T20:25:47.369Z,28.68
2018-04-02T20:28:13.713Z,28.66
2018-04-02T20:30:40.083Z,28.68
2018-04-02T20:33:06.398Z,28.69
2018-04-02T20:35:32.753Z,28.59
2018-04-02T20:37:59.089Z,28.60
2018-04-02T20:40:25.407Z,28.63
2018-04-02T20:42:51.810Z,28.75
2018-04-02T20:45:18.131Z,28.69
2018-04-02T20:47:44.491Z,28.74
2018-04-02T20:50:10.827Z,28.75
2018-04-02T20:52:37.258Z,28.79
2018-04-02T20:55:03.731Z,28.72
2018-04-02T20:57:30.165Z,28.72
2018-04-02T20:59:56.526Z,28.73
2018-04-02T21:02:22.842Z,28.82
2018-04-02T21:04:49.162Z,28.90
2018-04-02T21:07:15.566Z,28.86
2018-04-02T21:09:41.933Z,28.97
2018-04-02T21:12:08.270Z,28.89
2018-04-02T21:14:34.701Z,28.84
2018-04-02T21:17:01.044Z,28.84
2018-04-02T21:19:27.429Z,28.85
2018-04-02T21:21:53.845Z,28.89
2018-04-02T21:24:20.227Z,28.93
2018-04-02T21:26:46.603Z,28.96
2018-04-02T21:29:13.037Z,29.04
2018-04-02T21:31:39.526Z,28.94
2018-04-02T21:34:05.871Z,28.95
2018-04-02T21:36:32.280Z,28.93
2018-04-02T21:38:58.637Z,29.00
2018-04-02T21:41:24.967Z,28.92
2018-04-02T21:43:51.328Z,29.07
2018-04-02T21:48:56.759Z,29.09
2018-04-02T21:51:23.115Z,29.08
2018-04-02T21:53:49.477Z,29.15
2018-04-02T21:56:15.859Z,28.97
2018-04-02T21:58:42.188Z,28.98
2018-04-02T22:01:08.558Z,29.03
2018-04-02T22:03:34.913Z,29.08
2018-04-02T22:06:01.441Z,29.25
2018-04-02T22:08:27.804Z,29.32
2018-04-02T22:10:54.226Z,29.31
2018-04-02T22:13:20.551Z,29.27
2018-04-02T22:15:47.010Z,29.29
2018-04-02T22:18:13.445Z,29.17
2018-04-02T22:20:39.894Z,29.17
2018-04-02T22:23:06.226Z,29.25
2018-04-02T22:25:32.597Z,29.26
2018-04-02T22:27:58.913Z,29.34
2018-04-02T22:30:25.291Z,29.36
2018-04-02T22:32:51.623Z,29.34
2018-04-02T22:35:18.041Z,29.35
2018-04-02T22:37:44.366Z,29.30
2018-04-02T22:40:10.774Z,29.34
2018-04-02T22:42:37.217Z,29.29
2018-04-02T22:45:03.542Z,29.22
2018-04-02T22:47:29.902Z,29.24
2018-04-02T22:49:56.304Z,29.20
2018-04-02T22:52:22.631Z,29.28
2018-04-02T22:54:56.778Z,29.20
2018-04-02T22:57:23.158Z,29.26
2018-04-02T22:59:49.652Z,29.28
2018-04-02T23:02:16.010Z,29.23
2018-04-02T23:04:42.376Z,29.26
2018-04-02T23:07:08.735Z,29.21
2018-04-02T23:09:35.187Z,29.42
2018-04-02T23:12:01.619Z,29.38
2018-04-02T23:14:28.026Z,29.50
2018-04-02T23:16:54.410Z,29.52
2018-04-02T23:19:20.730Z,29.55
2018-04-02T23:21:47.098Z,29.52
2018-04-02T23:24:13.454Z,29.45
2018-04-02T23:26:39.768Z,29.40
2018-04-02T23:29:06.142Z,29.39
2018-04-02T23:31:32.462Z,29.37
2018-04-02T23:33:58.830Z,29.42
2018-04-02T23:36:25.153Z,29.42
2018-04-02T23:38:52.139Z,29.64
2018-04-02T23:41:20.730Z,29.56
2018-04-02T23:43:47.157Z,29.53
2018-04-02T23:46:13.566Z,29.44
2018-04-02T23:48:41.405Z,29.49
2018-04-02T23:51:08.074Z,29.54
2018-04-02T23:53:34.949Z,29.69
2018-04-02T23:56:01.318Z,29.75
2018-04-02T23:58:28.433Z,29.86
